createdAt,value
2022-12-16T00:01:11.902Z,93879
2022-12-16T00:04:37.104Z,93880
2022-12-16T00:08:02.402Z,93868
2022-12-16T00:11:27.680Z,93866
2022-12-16T00:14:53.058Z,93867
2022-12-16T00:18:18.235Z,93872
2022-12-16T00:21:43.482Z,93878
2022-12-16T00:25:08.766Z,93873
2022-12-16T00:28:34.035Z,93873
2022-12-16T00:31:59.414Z,93870
2022-12-16T00:35:24.599Z,93860
2022-12-16T00:38:49.865Z,93851
2022-12-16T00:42:15.136Z,93853
2022-12-16T00:45:40.508Z,93854
2022-12-16T00:49:05.726Z,93858
2022-12-16T00:52:30.976Z,93866
2022-12-16T00:55:56.219Z,93866
2022-12-16T00:59:21.484Z,93865
2022-12-16T01:02:46.957Z,93860
2022-12-16T01:06:12.045Z,93859
2022-12-16T01:09:37.272Z,93853
2022-12-16T01:13:02.534Z,93853
2022-12-16T01:16:27.830Z,93863
2022-12-16T01:19:53.086Z,93859
2022-12-16T01:23:18.327Z,93863
2022-12-16T01:26:43.575Z,93860
2022-12-16T01:30:08.871Z,93858
2022-12-16T01:33:34.574Z,93857
2022-12-16T01:36:59.462Z,93860
2022-12-16T01:40:24.777Z,93862
2022-12-16T01:43:50.003Z,93848
2022-12-16T01:47:15.263Z,93852
2022-12-16T01:50:40.529Z,93849
2022-12-16T01:54:05.816Z,93849
2022-12-16T01:57:31.172Z,93847
2022-12-16T02:00:56.390Z,93847
2022-12-16T02:04:21.628Z,93851
2022-12-16T02:07:46.888Z,93847
2022-12-16T02:11:12.147Z,93853
2022-12-16T02:14:37.434Z,93848
2022-12-16T02:18:02.684Z,93851
2022-12-16T02:21:27.952Z,93841
2022-12-16T02:24:53.222Z,93845
2022-12-16T02:28:18.489Z,93850
2022-12-16T02:31:43.786Z,93863
2022-12-16T02:35:09.057Z,93864
2022-12-16T02:38:34.301Z,93858
2022-12-16T02:41:59.578Z,93858
2022-12-16T02:45:24.847Z,93856
2022-12-16T02:48:50.123Z,93860
2022-12-16T02:52:15.357Z,93866
2022-12-16T02:55:40.649Z,93861
2022-12-16T02:59:05.906Z,93862
2022-12-16T03:02:31.324Z,93858
2022-12-16T03:05:56.469Z,93869
2022-12-16T03:09:21.723Z,93866
2022-12-16T03:12:46.989Z,93871
2022-12-16T03:16:12.332Z,93874
2022-12-16T03:19:37.511Z,93876
2022-12-16T03:23:02.802Z,93877
2022-12-16T03:26:28.049Z,93883
2022-12-16T03:29:53.275Z,93875
2022-12-16T03:33:18.554Z,93879
2022-12-16T03:36:43.810Z,93880
2022-12-16T03:40:09.121Z,93887
2022-12-16T03:43:34.760Z,93888
2022-12-16T03:46:59.608Z,93888
2022-12-16T03:50:24.872Z,93890
2022-12-16T03:53:50.140Z,93895
2022-12-16T03:57:15.875Z,93899
2022-12-16T04:00:40.676Z,93897
2022-12-16T04:04:06.004Z,93898
2022-12-16T04:07:31.206Z,93896
2022-12-16T04:10:56.448Z,93898
2022-12-16T04:14:21.756Z,93903
2022-12-16T04:17:47.005Z,93908
2022-12-16T04:21:12.243Z,93906
2022-12-16T04:24:37.526Z,93903
2022-12-16T04:28:02.778Z,93905
2022-12-16T04:31:28.088Z,93903
2022-12-16T04:34:53.292Z,93904
2022-12-16T04:38:18.739Z,93902
2022-12-16T04:41:44.402Z,93906
2022-12-16T04:45:09.687Z,93907
2022-12-16T04:48:35.052Z,93910
2022-12-16T04:52:00.212Z,93910
2022-12-16T04:55:25.520Z,93918
2022-12-16T04:58:50.779Z,93916
2022-12-16T05:02:16.151Z,93925
2022-12-16T05:05:41.340Z,93925
2022-12-16T05:09:06.583Z,93931
2022-12-16T05:12:31.827Z,93934
2022-12-16T05:15:57.146Z,93932
2022-12-16T05:19:24.798Z,93940
2022-12-16T05:22:47.703Z,93944
2022-12-16T05:26:12.914Z,93947
2022-12-16T05:29:38.174Z,93948
2022-12-16T05:33:03.458Z,93954
2022-12-16T05:36:28.717Z,93951
2022-12-16T05:39:54.009Z,93956
2022-12-16T05:43:19.245Z,93955
2022-12-16T05:46:44.552Z,93953
2022-12-16T05:50:09.693Z,93961
2022-12-16T05:53:35.142Z,93962
2022-12-16T05:57:00.170Z,93963
2022-12-16T06:00:25.384Z,93967
2022-12-16T06:03:50.691Z,93977
2022-12-16T06:07:15.880Z,93986
2022-12-16T06:10:41.137Z,93986
2022-12-16T06:14:06.514Z,93988
2022-12-16T06:17:31.740Z,93995
2022-12-16T06:20:57.054Z,93994
2022-12-16T06:24:22.336Z,94002
2022-12-16T06:27:47.568Z,94008
2022-12-16T06:31:12.843Z,94016
2022-12-16T06:34:38.022Z,94018
2022-12-16T06:38:03.258Z,94023
2022-12-16T06:41:28.521Z,94031
2022-12-16T06:44:53.775Z,94037
2022-12-16T06:48:19.058Z,94041
2022-12-16T06:51:44.257Z,94047
2022-12-16T06:55:09.495Z,94052
2022-12-16T06:58:34.747Z,94061
2022-12-16T07:02:00.123Z,94069
2022-12-16T07:05:25.229Z,94071
2022-12-16T07:08:50.439Z,94071
2022-12-16T07:12:15.685Z,94068
2022-12-16T07:15:40.899Z,94071
2022-12-16T07:19:06.130Z,94070
2022-12-16T07:22:31.405Z,94072
2022-12-16T07:25:57.508Z,94078
2022-12-16T07:29:21.877Z,94077
2022-12-16T07:32:47.131Z,94089
2022-12-16T07:36:12.333Z,94098
2022-12-16T07:39:37.638Z,94090
2022-12-16T07:43:02.868Z,94094
2022-12-16T07:46:28.141Z,94101
2022-12-16T07:49:53.329Z,94115
2022-12-16T07:53:18.550Z,94115
2022-12-16T07:56:43.791Z,94121
2022-12-16T08:00:08.992Z,94138
2022-12-16T08:03:34.697Z,94132
2022-12-16T08:06:59.447Z,94144
2022-12-16T08:10:24.711Z,94142
2022-12-16T08:13:49.993Z,94142
2022-12-16T08:17:15.204Z,94155
2022-12-16T08:20:40.439Z,94147
2022-12-16T08:24:05.647Z,94154
2022-12-16T08:27:30.836Z,94152
2022-12-16T08:30:56.117Z,94156
2022-12-16T08:34:21.297Z,94162
2022-12-16T08:37:46.525Z,94161
2022-12-16T08:41:11.745Z,94170
2022-12-16T08:44:37.005Z,94171
2022-12-16T08:48:02.307Z,94172
2022-12-16T08:51:27.486Z,94181
2022-12-16T08:54:52.738Z,94193
2022-12-16T08:58:17.982Z,94190
2022-12-16T09:01:43.235Z,94203
2022-12-16T09:05:08.432Z,94204
2022-12-16T09:08:33.639Z,94205
2022-12-16T09:11:58.854Z,94206
2022-12-16T09:15:24.246Z,94216
2022-12-16T09:18:49.309Z,94225
2022-12-16T09:22:14.568Z,94231
2022-12-16T09:25:39.786Z,94236
2022-12-16T09:29:05.027Z,94232
2022-12-16T09:32:30.247Z,94235
2022-12-16T09:35:55.553Z,94237
2022-12-16T09:39:20.747Z,94245
2022-12-16T09:42:45.957Z,94254
2022-12-16T09:46:11.237Z,94259
2022-12-16T09:49:36.452Z,94268
2022-12-16T09:53:01.680Z,94267
2022-12-16T09:56:26.959Z,94272
2022-12-16T09:59:52.174Z,94268
2022-12-16T10:03:17.651Z,94272
2022-12-16T10:06:42.647Z,94278
2022-12-16T10:10:07.875Z,94279
2022-12-16T10:13:33.559Z,94277
2022-12-16T10:16:58.393Z,94278
2022-12-16T10:20:23.658Z,94278
2022-12-16T10:23:48.888Z,94274
2022-12-16T10:27:14.135Z,94277
2022-12-16T10:30:39.455Z,94281
2022-12-16T10:34:04.636Z,94279
2022-12-16T10:37:29.864Z,94276
2022-12-16T10:40:55.095Z,94275
2022-12-16T10:44:20.311Z,94278
2022-12-16T10:47:45.602Z,94284
2022-12-16T10:51:10.814Z,94288
2022-12-16T10:54:36.041Z,94284
2022-12-16T10:58:01.253Z,94279
2022-12-16T11:01:26.593Z,94281
2022-12-16T11:04:51.808Z,94285
2022-12-16T11:08:17.044Z,94288
2022-12-16T11:11:42.276Z,94285
2022-12-16T11:15:27.990Z,94293
2022-12-16T11:18:32.768Z,94288
2022-12-16T11:21:58.058Z,94289
2022-12-16T11:25:24.816Z,94298
2022-12-16T11:28:50.092Z,94302
2022-12-16T11:32:15.338Z,94301
2022-12-16T11:35:40.622Z,94298
2022-12-16T11:39:05.907Z,94299
2022-12-16T11:42:31.148Z,94288
2022-12-16T11:45:56.400Z,94291
2022-12-16T11:49:25.135Z,94291
2022-12-16T11:52:46.953Z,94297
2022-12-16T11:56:15.912Z,94292
2022-12-16T11:59:37.439Z,94296
2022-12-16T12:03:02.779Z,94306
2022-12-16T12:06:28.022Z,94311
2022-12-16T12:09:53.319Z,94315
2022-12-16T12:13:24.997Z,94319
2022-12-16T12:16:50.386Z,94325
2022-12-16T12:20:15.688Z,94319
2022-12-16T12:23:40.869Z,94325
2022-12-16T12:27:06.125Z,94332
2022-12-16T12:30:31.441Z,94332
2022-12-16T12:33:56.674Z,94336
2022-12-16T12:37:21.950Z,94338
2022-12-16T12:40:47.221Z,94342
2022-12-16T12:44:12.484Z,94354
2022-12-16T12:47:37.899Z,94361
2022-12-16T12:51:03.024Z,94364
2022-12-16T12:54:32.997Z,94367
2022-12-16T12:57:53.579Z,94367
2022-12-16T13:01:18.965Z,94371
2022-12-16T13:04:44.293Z,94375
2022-12-16T13:08:09.512Z,94382
2022-12-16T13:11:35.606Z,94391
2022-12-16T13:15:00.188Z,94391
2022-12-16T13:18:25.477Z,94399
2022-12-16T13:21:50.772Z,94402
2022-12-16T13:25:19.546Z,94407
2022-12-16T13:28:41.388Z,94417
2022-12-16T13:32:06.743Z,94416
2022-12-16T13:35:32.033Z,94419
2022-12-16T13:38:57.413Z,94424
2022-12-16T13:42:22.652Z,94433
2022-12-16T13:45:48.068Z,94433
2022-12-16T13:49:13.271Z,94437
2022-12-16T13:52:38.570Z,94445
2022-12-16T13:56:03.957Z,94453
2022-12-16T13:59:29.335Z,94461
2022-12-16T14:02:54.649Z,94465
2022-12-16T14:06:20.012Z,94467
2022-12-16T14:09:45.301Z,94468
2022-12-16T14:13:10.812Z,94475
2022-12-16T14:16:36.132Z,94481
2022-12-16T14:20:01.398Z,94480
2022-12-16T14:23:55.128Z,94476
2022-12-16T14:26:51.948Z,94481
2022-12-16T14:30:17.248Z,94484
2022-12-16T15:06:27.591Z,94547
2022-12-16T15:09:52.844Z,94545
2022-12-16T15:13:18.116Z,94552
2022-12-16T15:16:43.444Z,94555
2022-12-16T15:20:08.628Z,94558
2022-12-16T15:23:34.229Z,94561
2022-12-16T15:26:59.173Z,94567
2022-12-16T15:30:24.459Z,94573
2022-12-16T15:33:49.737Z,94575
2022-12-16T15:37:15.021Z,94583
2022-12-16T15:40:40.407Z,94581
2022-12-16T15:44:05.579Z,94591
2022-12-16T15:47:30.923Z,94599
2022-12-16T15:50:56.213Z,94597
2022-12-16T15:54:21.757Z,94600
2022-12-16T15:57:47.035Z,94607
2022-12-16T16:01:12.340Z,94612
2022-12-16T16:04:37.777Z,94616
2022-12-16T16:08:03.992Z,94629
2022-12-16T16:11:28.356Z,94624
2022-12-16T16:14:53.667Z,94633
2022-12-16T16:18:18.947Z,94642
2022-12-16T16:21:44.242Z,94643
2022-12-16T16:25:09.616Z,94645
2022-12-16T16:28:34.940Z,94649
2022-12-16T16:32:04.034Z,94648
2022-12-16T16:35:25.449Z,94655
2022-12-16T16:38:50.736Z,94657
2022-12-16T16:42:16.023Z,94658
2022-12-16T16:45:41.339Z,94662
2022-12-16T16:49:06.691Z,94671
2022-12-16T16:52:31.945Z,94679
2022-12-16T16:55:57.259Z,94679
2022-12-16T16:59:22.506Z,94682
2022-12-16T17:02:48.123Z,94684
2022-12-16T17:06:13.217Z,94682
2022-12-16T17:09:38.516Z,94685
2022-12-16T17:13:04.785Z,94689
2022-12-16T17:16:29.521Z,94693
2022-12-16T17:19:54.701Z,94699
2022-12-16T17:23:20.008Z,94704
2022-12-16T17:26:45.286Z,94707
2022-12-16T17:30:10.551Z,94707
2022-12-16T17:33:36.127Z,94709
2022-12-16T17:37:01.047Z,94711
2022-12-16T17:40:26.380Z,94714
2022-12-16T17:43:52.274Z,94716
2022-12-16T17:47:17.511Z,94717
2022-12-16T17:50:42.781Z,94715
2022-12-16T17:54:16.137Z,94723
2022-12-16T17:57:33.340Z,94731
2022-12-16T18:00:58.588Z,94734
2022-12-16T18:04:23.997Z,94740
2022-12-16T18:07:49.207Z,94745
2022-12-16T18:11:14.484Z,94739
2022-12-16T18:14:39.807Z,94742
2022-12-16T18:18:05.033Z,94744
2022-12-16T18:21:30.296Z,94742
2022-12-16T18:24:55.585Z,94744
2022-12-16T18:28:20.855Z,94745
2022-12-16T18:31:46.199Z,94749
2022-12-16T18:35:11.433Z,94754
2022-12-16T18:38:36.701Z,94761
2022-12-16T18:42:01.995Z,94758
2022-12-16T18:45:27.267Z,94770
2022-12-16T18:48:52.604Z,94770
2022-12-16T18:52:17.844Z,94780
2022-12-16T18:55:43.123Z,94781
2022-12-16T18:59:08.415Z,94780
2022-12-16T19:02:33.792Z,94782
2022-12-16T19:05:58.946Z,94784
2022-12-16T19:09:24.223Z,94789
2022-12-16T19:12:49.522Z,94788
2022-12-16T19:16:14.860Z,94798
2022-12-16T19:19:40.086Z,94800
2022-12-16T19:23:05.437Z,94805
2022-12-16T19:26:30.665Z,94806
2022-12-16T19:29:55.939Z,94804
2022-12-16T19:33:21.190Z,94807
2022-12-16T19:36:47.000Z,94814
2022-12-16T19:40:11.866Z,94832
2022-12-16T19:43:37.007Z,94827
2022-12-16T19:47:02.260Z,94832
2022-12-16T19:50:27.536Z,94832
2022-12-16T19:53:52.815Z,94834
2022-12-16T19:57:18.086Z,94837
2022-12-16T20:00:43.343Z,94841
2022-12-16T20:04:08.609Z,94840
2022-12-16T20:07:33.890Z,94852
2022-12-16T20:10:59.164Z,94856
2022-12-16T20:14:24.442Z,94856
2022-12-16T20:17:49.673Z,94863
2022-12-16T20:21:14.920Z,94866
2022-12-16T20:24:40.188Z,94868
2022-12-16T20:28:05.469Z,94872
2022-12-16T20:31:30.818Z,94875
2022-12-16T20:34:56.086Z,94881
2022-12-16T20:38:21.322Z,94890
2022-12-16T20:41:46.566Z,94895
2022-12-16T20:45:11.939Z,94898
2022-12-16T20:48:37.240Z,94905
2022-12-16T20:52:02.509Z,94902
2022-12-16T20:55:27.776Z,94914
2022-12-16T20:58:56.092Z,94922
2022-12-16T21:02:30.310Z,94912
2022-12-16T21:05:43.672Z,94918
2022-12-16T21:09:08.918Z,94920
2022-12-16T21:12:34.180Z,94922
2022-12-16T21:15:59.468Z,94926
2022-12-16T21:19:29.472Z,94940
2022-12-16T21:22:50.006Z,94945
2022-12-16T21:26:15.268Z,94950
2022-12-16T21:29:40.523Z,94943
2022-12-16T21:33:05.793Z,94949
2022-12-16T21:36:31.084Z,94949
2022-12-16T21:39:56.396Z,94958
2022-12-16T21:43:21.601Z,94959
2022-12-16T21:46:46.855Z,94971
2022-12-16T21:50:12.132Z,94975
2022-12-16T21:53:38.254Z,94977
2022-12-16T21:57:03.476Z,94987
2022-12-16T22:00:28.764Z,94990
2022-12-16T22:03:54.005Z,95001
2022-12-16T22:07:19.240Z,94998
2022-12-16T22:10:44.508Z,95011
2022-12-16T22:14:09.836Z,95009
2022-12-16T22:17:35.084Z,95009
2022-12-16T22:21:00.347Z,95003
2022-12-16T22:24:25.623Z,95012
2022-12-16T22:27:50.860Z,95020
2022-12-16T22:31:16.427Z,95022
2022-12-16T22:34:41.393Z,95026
2022-12-16T22:38:06.667Z,95030
2022-12-16T22:41:31.983Z,95036
2022-12-16T22:44:57.212Z,95036
2022-12-16T22:48:22.634Z,95035
2022-12-16T22:51:47.757Z,95031
2022-12-16T22:55:13.004Z,95025
2022-12-16T22:58:38.262Z,95030
2022-12-16T23:02:03.549Z,95029
2022-12-16T23:05:28.798Z,95030
2022-12-16T23:08:54.039Z,95041
2022-12-16T23:12:19.294Z,95039
2022-12-16T23:15:44.611Z,95039
2022-12-16T23:19:09.848Z,95049
2022-12-16T23:22:35.157Z,95045
2022-12-16T23:26:00.401Z,95046
2022-12-16T23:29:25.671Z,95050
2022-12-16T23:32:50.915Z,95052
2022-12-16T23:36:16.173Z,95048
2022-12-16T23:39:41.470Z,95053
2022-12-16T23:43:06.701Z,95063
2022-12-16T23:46:31.995Z,95069
2022-12-16T23:49:57.270Z,95074
2022-12-16T23:53:22.531Z,95075
2022-12-16T23:56:47.814Z,95080
